createdAt,value
2018-03-27T00:01:13.261Z,8.62
2018-03-27T00:03:41.699Z,8.80
2018-03-27T00:06:10.115Z,8.88
2018-03-27T00:08:38.434Z,8.96
2018-03-27T00:11:06.718Z,9.03
2018-03-27T00:13:35.192Z,9.03
2018-03-27T00:16:03.507Z,9.03
2018-03-27T00:18:32.243Z,9.10
2018-03-27T00:21:00.504Z,9.08
2018-03-27T00:23:28.801Z,9.01
2018-03-27T00:25:57.084Z,9.05
2018-03-27T00:28:43.726Z,9.10
2018-03-27T00:31:30.141Z,8.92
2018-03-27T00:34:17.223Z,8.67
2018-03-27T00:37:04.563Z,8.53
2018-03-27T00:39:50.898Z,8.48
2018-03-27T00:42:43.324Z,8.46
2018-03-27T00:45:11.856Z,8.55
2018-03-27T00:47:40.208Z,8.61
2018-03-27T00:50:08.578Z,8.67
2018-03-27T00:52:37.383Z,8.79
2018-03-27T00:55:05.738Z,8.72
2018-03-27T00:57:34.817Z,8.76
2018-03-27T01:00:03.159Z,8.67
2018-03-27T01:02:31.470Z,8.69
2018-03-27T01:05:05.334Z,8.64
2018-03-27T01:07:33.814Z,8.56
2018-03-27T01:10:02.109Z,8.46
2018-03-27T01:12:30.804Z,8.45
2018-03-27T01:14:59.397Z,8.48
2018-03-27T01:17:27.816Z,8.55
2018-03-27T01:19:56.192Z,8.56
2018-03-27T01:22:24.667Z,8.57
2018-03-27T01:24:53.904Z,8.58
2018-03-27T01:27:22.278Z,8.58
2018-03-27T01:29:50.748Z,8.24
2018-03-27T01:32:19.187Z,8.20
2018-03-27T01:34:48.374Z,8.01
2018-03-27T01:37:16.708Z,7.76
2018-03-27T01:39:45.002Z,7.08
2018-03-27T01:42:14.367Z,7.19
2018-03-27T01:44:42.814Z,7.16
2018-03-27T01:47:11.248Z,7.12
2018-03-27T01:49:40.665Z,7.55
2018-03-27T01:52:09.141Z,7.60
2018-03-27T01:54:37.417Z,7.73
2018-03-27T01:57:05.762Z,7.76
2018-03-27T01:59:34.114Z,7.54
2018-03-27T02:02:03.166Z,7.63
2018-03-27T02:04:31.462Z,7.74
2018-03-27T02:06:59.746Z,7.72
2018-03-27T02:09:28.157Z,7.62
2018-03-27T02:12:02.100Z,7.69
2018-03-27T02:14:36.130Z,7.63
2018-03-27T02:17:09.884Z,7.67
2018-03-27T02:19:43.693Z,7.66
2018-03-27T02:22:12.099Z,7.59
2018-03-27T02:24:40.488Z,7.48
2018-03-27T02:27:08.932Z,7.60
2018-03-27T02:29:37.239Z,7.54
2018-03-27T02:32:05.543Z,7.51
2018-03-27T02:34:33.877Z,7.67
2018-03-27T02:37:02.328Z,7.67
2018-03-27T02:39:31.608Z,7.63
2018-03-27T02:42:00.022Z,7.28
2018-03-27T02:44:28.359Z,7.15
2018-03-27T02:46:56.688Z,7.10
2018-03-27T02:49:25.110Z,7.17
2018-03-27T02:51:53.445Z,7.46
2018-03-27T02:54:22.005Z,7.38
2018-03-27T02:56:50.548Z,7.43
2018-03-27T02:59:18.869Z,7.20
2018-03-27T03:01:47.233Z,7.17
2018-03-27T03:04:17.510Z,7.43
2018-03-27T03:06:45.899Z,7.41
2018-03-27T03:09:14.332Z,7.44
2018-03-27T03:11:42.859Z,7.35
2018-03-27T03:14:11.304Z,7.35
2018-03-27T03:16:39.619Z,7.26
2018-03-27T03:19:07.928Z,7.28
2018-03-27T03:21:37.017Z,7.24
2018-03-27T03:24:06.164Z,7.27
2018-03-27T03:26:34.824Z,7.25
2018-03-27T03:29:03.763Z,7.17
2018-03-27T03:31:32.083Z,7.12
2018-03-27T03:34:01.172Z,7.32
2018-03-27T03:36:31.272Z,7.29
2018-03-27T03:38:59.682Z,7.12
2018-03-27T03:41:27.944Z,7.03
2018-03-27T03:43:57.171Z,6.99
2018-03-27T03:46:25.452Z,7.08
2018-03-27T03:48:53.769Z,7.19
2018-03-27T03:51:22.083Z,7.13
2018-03-27T03:53:50.620Z,7.17
2018-03-27T03:56:19.253Z,7.28
2018-03-27T03:58:47.557Z,7.28
2018-03-27T04:01:15.863Z,7.38
2018-03-27T04:03:44.145Z,7.34
2018-03-27T04:06:13.578Z,7.33
2018-03-27T04:08:42.590Z,7.32
2018-03-27T04:11:10.878Z,7.04
2018-03-27T04:13:39.163Z,6.89
2018-03-27T04:16:07.509Z,6.76
2018-03-27T04:18:35.962Z,6.76
2018-03-27T04:21:05.008Z,7.02
2018-03-27T04:23:33.393Z,6.81
2018-03-27T04:26:01.863Z,6.81
2018-03-27T04:28:30.339Z,6.87
2018-03-27T04:30:58.697Z,6.88
2018-03-27T04:33:27.135Z,6.92
2018-03-27T04:35:56.681Z,6.87
2018-03-27T04:38:25.288Z,6.95
2018-03-27T04:40:53.754Z,6.91
2018-03-27T04:43:22.334Z,6.79
2018-03-27T04:45:50.834Z,6.89
2018-03-27T04:48:19.242Z,6.85
2018-03-27T04:50:47.654Z,6.59
2018-03-27T04:53:16.724Z,6.69
2018-03-27T04:55:45.139Z,6.75
2018-03-27T04:58:13.643Z,6.78
2018-03-27T05:00:41.966Z,6.80
2018-03-27T05:03:10.568Z,6.73
2018-03-27T05:05:39.818Z,6.77
2018-03-27T05:08:09.969Z,6.93
2018-03-27T05:10:38.326Z,7.11
2018-03-27T05:13:06.615Z,7.15
2018-03-27T05:15:34.894Z,7.15
2018-03-27T05:18:04.245Z,7.22
2018-03-27T05:20:32.615Z,7.18
2018-03-27T05:23:01.170Z,7.22
2018-03-27T05:25:29.576Z,7.25
2018-03-27T05:27:57.923Z,7.25
2018-03-27T05:30:26.189Z,7.30
2018-03-27T05:32:54.514Z,7.24
2018-03-27T05:35:23.650Z,7.26
2018-03-27T05:37:52.171Z,7.35
2018-03-27T05:40:21.197Z,7.39
2018-03-27T05:42:49.613Z,7.38
2018-03-27T05:45:17.949Z,7.34
2018-03-27T05:47:46.422Z,7.41
2018-03-27T05:50:15.118Z,7.48
2018-03-27T05:52:43.404Z,7.47
2018-03-27T05:55:11.818Z,7.44
2018-03-27T05:57:41.025Z,7.42
2018-03-27T06:00:09.352Z,7.52
2018-03-27T06:02:37.798Z,7.51
2018-03-27T06:05:06.906Z,7.55
2018-03-27T06:07:35.359Z,7.61
2018-03-27T06:10:05.854Z,7.77
2018-03-27T06:12:34.325Z,7.82
2018-03-27T06:15:02.618Z,7.89
2018-03-27T06:17:31.019Z,7.94
2018-03-27T06:19:59.413Z,7.98
2018-03-27T06:22:28.460Z,8.06
2018-03-27T06:24:56.945Z,8.11
2018-03-27T06:27:25.452Z,8.16
2018-03-27T06:29:53.934Z,8.21
2018-03-27T06:32:22.417Z,8.32
2018-03-27T06:34:50.813Z,8.32
2018-03-27T06:37:19.218Z,8.36
2018-03-27T06:39:47.680Z,8.44
2018-03-27T06:42:16.231Z,8.47
2018-03-27T06:44:44.825Z,8.45
2018-03-27T06:47:14.035Z,8.48
2018-03-27T06:49:43.113Z,8.55
2018-03-27T06:52:12.155Z,8.62
2018-03-27T06:54:40.463Z,8.57
2018-03-27T06:57:08.861Z,8.49
2018-03-27T06:59:37.328Z,8.56
2018-03-27T07:02:06.010Z,8.72
2018-03-27T07:04:35.841Z,8.74
2018-03-27T07:07:04.396Z,8.73
2018-03-27T07:09:32.813Z,8.86
2018-03-27T07:12:01.245Z,9.03
2018-03-27T07:14:29.655Z,9.10
2018-03-27T07:16:58.204Z,9.28
2018-03-27T07:19:26.514Z,9.29
2018-03-27T07:21:55.814Z,9.12
2018-03-27T07:24:24.221Z,9.10
2018-03-27T07:26:52.535Z,9.10
2018-03-27T07:29:20.895Z,9.07
2018-03-27T07:31:49.243Z,9.09
2018-03-27T07:34:18.432Z,9.16
2018-03-27T07:36:47.698Z,9.17
2018-03-27T07:39:16.327Z,9.19
2018-03-27T07:41:44.673Z,9.31
2018-03-27T07:44:14.273Z,9.52
2018-03-27T07:46:42.717Z,9.69
2018-03-27T07:49:11.239Z,9.85
2018-03-27T07:51:39.564Z,9.88
2018-03-27T07:54:07.891Z,9.85
2018-03-27T07:56:36.336Z,9.91
2018-03-27T07:59:04.724Z,9.88
2018-03-27T08:01:33.190Z,9.94
2018-03-27T08:04:01.816Z,9.94
2018-03-27T08:06:30.204Z,10.01
2018-03-27T08:08:58.526Z,10.18
2018-03-27T08:11:26.919Z,10.14
2018-03-27T08:13:56.156Z,10.28
2018-03-27T08:16:24.628Z,10.39
2018-03-27T08:18:53.124Z,10.55
2018-03-27T08:21:21.530Z,10.60
2018-03-27T08:23:49.851Z,10.64
2018-03-27T08:26:18.169Z,10.68
2018-03-27T08:28:47.250Z,10.82
2018-03-27T08:31:15.648Z,10.88
2018-03-27T08:33:44.735Z,11.01
2018-03-27T08:36:13.924Z,11.01
2018-03-27T08:38:42.204Z,11.07
2018-03-27T08:41:11.362Z,11.08
2018-03-27T08:43:39.673Z,11.16
2018-03-27T08:46:08.058Z,11.22
2018-03-27T08:48:37.321Z,11.36
2018-03-27T08:51:05.613Z,11.50
2018-03-27T08:53:34.131Z,11.55
2018-03-27T08:56:03.229Z,11.65
2018-03-27T08:58:32.281Z,11.65
2018-03-27T09:01:02.074Z,11.44
2018-03-27T09:03:30.396Z,11.52
2018-03-27T09:05:59.546Z,11.27
2018-03-27T09:08:27.991Z,11.44
2018-03-27T09:10:56.312Z,11.68
2018-03-27T09:13:24.669Z,11.73
2018-03-27T09:15:54.110Z,11.60
2018-03-27T09:18:22.759Z,11.73
2018-03-27T09:20:51.351Z,11.78
2018-03-27T09:23:19.789Z,11.72
2018-03-27T09:25:48.545Z,11.76
2018-03-27T09:28:16.984Z,11.96
2018-03-27T09:30:45.336Z,12.07
2018-03-27T09:33:13.832Z,12.16
2018-03-27T09:35:42.425Z,11.98
2018-03-27T09:38:10.790Z,12.11
2018-03-27T09:40:39.150Z,12.15
2018-03-27T09:43:08.394Z,12.20
2018-03-27T09:45:38.001Z,12.29
2018-03-27T09:48:06.554Z,12.31
2018-03-27T09:50:34.897Z,12.34
2018-03-27T09:53:04.125Z,12.42
2018-03-27T09:55:32.583Z,12.56
2018-03-27T09:58:01.713Z,12.65
2018-03-27T10:00:35.526Z,12.52
2018-03-27T10:03:03.841Z,12.59
2018-03-27T10:05:33.022Z,12.75
2018-03-27T10:08:01.576Z,12.90
2018-03-27T10:10:30.286Z,12.88
2018-03-27T10:12:58.607Z,12.99
2018-03-27T10:15:27.191Z,13.09
2018-03-27T10:17:56.488Z,13.03
2018-03-27T10:20:25.588Z,12.95
2018-03-27T10:22:53.881Z,12.96
2018-03-27T10:27:57.038Z,12.84
2018-03-27T10:30:26.426Z,12.93
2018-03-27T10:32:54.728Z,13.01
2018-03-27T10:35:23.023Z,13.11
2018-03-27T10:37:52.228Z,12.85
2018-03-27T10:40:21.302Z,12.67
2018-03-27T10:42:51.427Z,12.68
2018-03-27T10:45:20.563Z,12.79
2018-03-27T10:47:48.883Z,12.79
2018-03-27T10:50:17.316Z,12.95
2018-03-27T10:52:45.734Z,13.21
2018-03-27T10:55:14.163Z,13.35
2018-03-27T10:57:42.751Z,13.35
2018-03-27T11:00:11.115Z,13.00
2018-03-27T11:02:40.387Z,12.96
2018-03-27T11:05:08.746Z,12.89
2018-03-27T11:07:37.216Z,12.98
2018-03-27T11:10:05.659Z,12.90
2018-03-27T11:12:35.037Z,12.97
2018-03-27T11:15:03.685Z,12.91
2018-03-27T11:17:32.055Z,12.77
2018-03-27T11:20:00.487Z,12.80
2018-03-27T11:22:29.804Z,12.79
2018-03-27T11:24:58.256Z,12.55
2018-03-27T11:27:27.636Z,12.51
2018-03-27T11:29:55.992Z,12.55
2018-03-27T11:32:24.461Z,12.48
2018-03-27T11:34:54.137Z,12.49
2018-03-27T11:37:22.796Z,12.70
2018-03-27T11:39:51.137Z,12.71
2018-03-27T11:42:19.498Z,12.81
2018-03-27T11:44:47.878Z,12.84
2018-03-27T11:47:16.569Z,12.96
2018-03-27T11:49:44.925Z,13.14
2018-03-27T11:52:13.227Z,13.23
2018-03-27T11:54:41.596Z,13.32
2018-03-27T11:57:10.651Z,13.45
2018-03-27T11:59:38.946Z,13.58
2018-03-27T12:02:08.147Z,13.56
2018-03-27T12:04:37.335Z,13.58
2018-03-27T12:07:07.292Z,13.52
2018-03-27T12:09:35.610Z,13.47
2018-03-27T12:12:04.839Z,13.33
2018-03-27T12:14:34.062Z,13.21
2018-03-27T12:17:02.529Z,13.11
2018-03-27T12:19:30.885Z,13.06
2018-03-27T12:21:59.946Z,12.74
2018-03-27T12:24:28.289Z,12.75
2018-03-27T12:26:56.656Z,12.61
2018-03-27T12:29:25.096Z,12.57
2018-03-27T12:31:54.336Z,12.61
2018-03-27T12:34:22.867Z,12.66
2018-03-27T12:36:51.289Z,12.75
2018-03-27T12:39:20.693Z,12.86
2018-03-27T12:41:49.006Z,12.83
2018-03-27T12:44:17.448Z,12.95
2018-03-27T12:46:46.091Z,12.97
2018-03-27T12:49:14.553Z,12.94
2018-03-27T12:51:42.905Z,12.90
2018-03-27T12:54:11.376Z,12.92
2018-03-27T12:56:39.737Z,12.90
2018-03-27T12:59:08.957Z,12.88
2018-03-27T13:01:37.469Z,12.97
2018-03-27T13:04:05.830Z,12.98
2018-03-27T13:06:34.196Z,12.95
2018-03-27T13:09:02.587Z,13.15
2018-03-27T13:11:31.158Z,13.22
2018-03-27T13:13:59.747Z,13.45
2018-03-27T13:16:28.121Z,13.67
2018-03-27T13:18:56.474Z,13.83
2018-03-27T13:21:25.698Z,13.67
2018-03-27T13:23:54.036Z,13.71
2018-03-27T13:26:23.110Z,13.74
2018-03-27T13:28:51.430Z,13.71
2018-03-27T13:31:19.813Z,13.75
2018-03-27T13:33:48.586Z,13.78
2018-03-27T13:36:17.842Z,13.79
2018-03-27T13:38:47.058Z,13.79
2018-03-27T13:41:15.393Z,13.55
2018-03-27T13:43:43.863Z,13.29
2018-03-27T13:46:12.328Z,13.26
2018-03-27T13:48:40.777Z,13.23
2018-03-27T13:51:09.181Z,13.35
2018-03-27T13:53:37.667Z,13.33
2018-03-27T13:56:06.009Z,13.04
2018-03-27T13:58:34.297Z,13.00
2018-03-27T14:01:03.005Z,13.09
2018-03-27T14:03:31.455Z,13.03
2018-03-27T14:05:59.946Z,13.17
2018-03-27T14:08:29.583Z,13.15
2018-03-27T14:10:58.121Z,13.07
2018-03-27T14:13:26.504Z,13.03
2018-03-27T14:15:54.921Z,12.98
2018-03-27T14:18:23.253Z,12.95
2018-03-27T14:20:51.622Z,12.85
2018-03-27T14:23:20.155Z,12.77
2018-03-27T14:25:48.651Z,12.68
2018-03-27T14:28:17.113Z,12.61
2018-03-27T14:30:45.572Z,12.61
2018-03-27T14:33:13.874Z,12.77
2018-03-27T14:35:42.505Z,12.68
2018-03-27T14:38:10.861Z,12.65
2018-03-27T14:40:39.339Z,12.68
2018-03-27T14:43:10.577Z,12.67
2018-03-27T14:45:39.048Z,12.56
2018-03-27T14:48:07.612Z,12.32
2018-03-27T14:50:36.750Z,12.30
2018-03-27T14:53:05.253Z,12.17
2018-03-27T14:55:33.559Z,12.20
2018-03-27T14:58:02.902Z,11.93
2018-03-27T15:00:31.359Z,11.88
2018-03-27T15:02:59.966Z,11.88
2018-03-27T15:05:28.363Z,11.71
2018-03-27T15:07:56.751Z,11.59
2018-03-27T15:10:25.079Z,11.56
2018-03-27T15:12:54.625Z,11.58
2018-03-27T15:15:22.997Z,11.53
2018-03-27T15:17:52.442Z,11.72
2018-03-27T15:20:21.767Z,11.68
2018-03-27T15:22:50.881Z,11.69
2018-03-27T15:25:19.457Z,11.86
2018-03-27T15:27:47.935Z,11.85
2018-03-27T15:30:16.530Z,11.73
2018-03-27T15:32:44.939Z,11.66
2018-03-27T15:35:13.352Z,11.70
2018-03-27T15:37:42.461Z,11.68
2018-03-27T15:40:11.064Z,11.71
2018-03-27T15:42:39.782Z,11.68
2018-03-27T15:45:08.157Z,11.43
2018-03-27T15:47:36.512Z,11.35
2018-03-27T15:50:05.068Z,11.39
2018-03-27T15:52:33.823Z,11.32
2018-03-27T15:55:02.149Z,11.36
2018-03-27T15:57:30.580Z,11.24
2018-03-27T16:00:00.562Z,11.23
2018-03-27T16:02:28.881Z,11.20
2018-03-27T16:04:58.117Z,11.33
2018-03-27T16:07:26.489Z,11.32
2018-03-27T16:09:55.330Z,11.33
2018-03-27T16:12:23.645Z,11.36
2018-03-27T16:14:52.082Z,11.08
2018-03-27T16:17:21.104Z,11.13
2018-03-27T16:19:50.433Z,11.22
2018-03-27T16:22:18.752Z,11.21
2018-03-27T16:24:47.365Z,11.23
2018-03-27T16:27:16.646Z,11.32
2018-03-27T16:29:45.109Z,11.32
2018-03-27T16:32:13.579Z,11.35
2018-03-27T16:34:41.939Z,11.35
2018-03-27T16:37:10.379Z,11.38
2018-03-27T16:39:39.559Z,11.40
2018-03-27T16:42:07.967Z,11.42
2018-03-27T16:44:37.133Z,11.41
2018-03-27T16:47:06.282Z,11.45
2018-03-27T16:49:34.717Z,11.39
2018-03-27T16:52:03.058Z,11.41
2018-03-27T16:54:31.493Z,11.36
2018-03-27T16:57:00.737Z,11.35
2018-03-27T16:59:29.636Z,11.31
2018-03-27T17:01:58.177Z,11.32
2018-03-27T17:04:26.596Z,11.29
2018-03-27T17:06:54.942Z,11.30
2018-03-27T17:09:24.331Z,11.19
2018-03-27T17:11:52.755Z,11.13
2018-03-27T17:14:21.273Z,11.25
2018-03-27T17:16:49.860Z,11.32
2018-03-27T17:19:20.040Z,11.09
2018-03-27T17:21:49.194Z,11.01
2018-03-27T17:24:19.352Z,11.00
2018-03-27T17:26:47.724Z,11.07
2018-03-27T17:29:16.015Z,11.24
2018-03-27T17:31:44.588Z,11.17
2018-03-27T17:34:13.082Z,11.11
2018-03-27T17:36:41.439Z,11.15
2018-03-27T17:39:09.849Z,10.81
2018-03-27T17:41:38.276Z,10.57
2018-03-27T17:44:06.649Z,10.53
2018-03-27T17:46:35.266Z,10.42
2018-03-27T17:49:03.805Z,10.63
2018-03-27T17:51:32.133Z,10.64
2018-03-27T17:54:01.589Z,10.54
2018-03-27T17:56:31.822Z,10.35
2018-03-27T17:59:01.134Z,10.54
2018-03-27T18:01:29.603Z,10.49
2018-03-27T18:03:58.013Z,10.31
2018-03-27T18:06:26.498Z,10.33
2018-03-27T18:08:55.196Z,10.21
2018-03-27T18:11:23.781Z,10.24
2018-03-27T18:13:52.969Z,10.27
2018-03-27T18:16:21.340Z,10.39
2018-03-27T18:18:49.719Z,10.48
2018-03-27T18:21:18.105Z,10.34
2018-03-27T18:23:46.476Z,10.27
2018-03-27T18:26:15.189Z,10.14
2018-03-27T18:28:43.569Z,10.18
2018-03-27T18:31:12.107Z,10.08
2018-03-27T18:33:40.439Z,9.60
2018-03-27T18:36:10.714Z,9.71
2018-03-27T18:38:39.532Z,9.48
2018-03-27T18:41:08.016Z,9.49
2018-03-27T18:43:36.641Z,9.42
2018-03-27T18:46:05.044Z,9.49
2018-03-27T18:48:33.357Z,9.50
2018-03-27T18:51:01.729Z,9.58
2018-03-27T18:53:30.101Z,9.47
2018-03-27T18:55:58.509Z,9.35
2018-03-27T18:58:27.640Z,9.34
2018-03-27T19:00:55.982Z,9.35
2018-03-27T19:03:25.229Z,9.51
2018-03-27T19:05:53.590Z,9.43
2018-03-27T19:08:22.007Z,9.50
2018-03-27T19:10:50.416Z,9.61
2018-03-27T19:13:18.733Z,9.69
2018-03-27T19:15:47.024Z,9.59
2018-03-27T19:18:15.385Z,9.57
2018-03-27T19:20:43.877Z,9.60
2018-03-27T19:23:12.313Z,9.65
2018-03-27T19:25:40.636Z,9.74
2018-03-27T19:28:09.079Z,9.77
2018-03-27T19:30:38.191Z,9.76
2018-03-27T19:33:06.573Z,9.82
2018-03-27T19:35:35.657Z,9.85
2018-03-27T19:38:04.716Z,9.96
2018-03-27T19:40:33.155Z,9.87
2018-03-27T19:43:01.541Z,9.83
2018-03-27T19:45:29.923Z,9.97
2018-03-27T19:47:58.240Z,9.98
2018-03-27T19:50:26.597Z,10.05
2018-03-27T19:52:55.018Z,10.01
2018-03-27T19:55:23.374Z,10.01
2018-03-27T19:57:51.690Z,10.11
2018-03-27T20:00:20.263Z,10.09
2018-03-27T20:02:50.714Z,9.99
2018-03-27T20:05:19.039Z,10.12
2018-03-27T20:07:47.983Z,10.06
2018-03-27T20:10:16.364Z,10.18
2018-03-27T20:12:44.690Z,10.16
2018-03-27T20:15:13.884Z,10.04
2018-03-27T20:17:42.216Z,10.09
2018-03-27T20:20:10.679Z,10.12
2018-03-27T20:22:39.130Z,10.07
2018-03-27T20:25:08.390Z,10.02
2018-03-27T20:27:37.426Z,9.98
2018-03-27T20:30:06.859Z,9.98
2018-03-27T20:32:35.558Z,10.06
2018-03-27T20:35:04.282Z,10.06
2018-03-27T20:37:32.709Z,10.05
2018-03-27T20:40:01.057Z,10.14
2018-03-27T20:42:30.276Z,10.06
2018-03-27T20:44:58.637Z,10.01
2018-03-27T20:47:27.839Z,10.07
2018-03-27T20:49:56.942Z,10.11
2018-03-27T20:52:26.254Z,10.14
2018-03-27T20:54:54.670Z,10.19
2018-03-27T20:57:23.247Z,10.19
2018-03-27T20:59:51.684Z,10.17
2018-03-27T21:02:20.071Z,10.21
2018-03-27T21:04:48.416Z,10.20
2018-03-27T21:07:17.008Z,10.17
2018-03-27T21:09:47.261Z,10.17
2018-03-27T21:12:15.785Z,10.05
2018-03-27T21:14:44.182Z,10.17
2018-03-27T21:17:13.355Z,10.13
2018-03-27T21:19:41.790Z,10.09
2018-03-27T21:22:10.272Z,10.10
2018-03-27T21:24:38.688Z,10.19
2018-03-27T21:27:07.279Z,10.15
2018-03-27T21:29:35.620Z,10.16
2018-03-27T21:32:03.959Z,10.16
2018-03-27T21:34:32.366Z,10.06
2018-03-27T21:37:00.769Z,10.10
2018-03-27T21:39:29.119Z,10.12
2018-03-27T21:41:57.607Z,10.18
2018-03-27T21:44:26.135Z,10.13
2018-03-27T21:46:54.517Z,10.17
2018-03-27T21:49:22.904Z,10.10
2018-03-27T21:51:51.259Z,10.11
2018-03-27T21:54:19.821Z,10.05
2018-03-27T21:56:48.140Z,10.11
2018-03-27T21:59:16.454Z,10.09
2018-03-27T22:01:45.603Z,10.15
2018-03-27T22:04:13.957Z,10.15
2018-03-27T22:06:42.301Z,10.17
2018-03-27T22:09:12.413Z,10.17
2018-03-27T22:11:41.728Z,10.11
2018-03-27T22:14:10.175Z,10.17
2018-03-27T22:16:38.677Z,10.21
2018-03-27T22:19:07.821Z,10.28
2018-03-27T22:21:36.523Z,10.28
2018-03-27T22:24:06.460Z,10.28
2018-03-27T22:26:35.794Z,10.30
2018-03-27T22:29:04.126Z,10.33
2018-03-27T22:31:32.555Z,10.32
2018-03-27T22:34:00.866Z,10.26
2018-03-27T22:36:29.191Z,10.26
2018-03-27T22:38:58.277Z,10.23
2018-03-27T22:41:27.401Z,10.23
2018-03-27T22:43:55.711Z,10.24
2018-03-27T22:46:23.986Z,10.28
2018-03-27T22:48:52.315Z,10.30
2018-03-27T22:51:20.629Z,10.36
2018-03-27T22:53:48.905Z,10.22
2018-03-27T22:56:17.457Z,10.14
2018-03-27T22:58:45.831Z,10.08
2018-03-27T23:01:14.317Z,10.03
2018-03-27T23:03:42.664Z,9.93
2018-03-27T23:06:11.066Z,9.90
2018-03-27T23:08:39.605Z,9.98
2018-03-27T23:11:08.174Z,9.95
2018-03-27T23:13:36.530Z,10.03
2018-03-27T23:16:04.836Z,10.19
2018-03-27T23:18:33.166Z,10.11
2018-03-27T23:21:01.550Z,10.08
2018-03-27T23:23:30.031Z,9.99
2018-03-27T23:25:58.546Z,9.96
2018-03-27T23:28:26.837Z,10.07
2018-03-27T23:30:55.148Z,10.03
2018-03-27T23:33:24.351Z,9.93
2018-03-27T23:35:53.615Z,9.94
2018-03-27T23:38:23.219Z,10.00
2018-03-27T23:40:54.160Z,9.97
2018-03-27T23:43:25.080Z,9.99
2018-03-27T23:45:53.414Z,10.10
2018-03-27T23:48:21.835Z,10.13
2018-03-27T23:50:50.161Z,10.16
2018-03-27T23:53:19.254Z,10.20
2018-03-27T23:55:47.550Z,10.19
2018-03-27T23:58:15.946Z,10.12
